createdAt,value
2022-09-09T00:01:06.284Z,97936.13
2022-09-09T00:03:54.541Z,97944.06
2022-09-09T00:06:36.597Z,97942.16
2022-09-09T00:09:22.019Z,97935.44
2022-09-09T00:11:51.766Z,97939.25
2022-09-09T00:14:27.853Z,97932.16
2022-09-09T00:17:01.902Z,97940.47
2022-09-09T00:19:51.463Z,97937.47
2022-09-09T00:22:21.268Z,97942.41
2022-09-09T00:24:54.392Z,97934.25
2022-09-09T00:27:30.987Z,97942.47
2022-09-09T00:30:02.954Z,97944.19
2022-09-09T00:32:31.750Z,97937.09
2022-09-09T00:35:12.451Z,97935.16
2022-09-09T00:37:39.753Z,97938.59
2022-09-09T00:40:23.418Z,97932.66
2022-09-09T00:43:07.064Z,97928.38
2022-09-09T00:45:52.522Z,97928.38
2022-09-09T00:48:21.289Z,97923.47
2022-09-09T00:51:11.893Z,97921.44
2022-09-09T00:53:56.644Z,97925.41
2022-09-09T00:56:31.471Z,97925.72
2022-09-09T00:59:12.968Z,97926.25
2022-09-09T01:01:40.808Z,97925.03
2022-09-09T01:04:17.575Z,97920.41
2022-09-09T01:06:49.509Z,97923.09
2022-09-09T01:09:25.133Z,97914.22
2022-09-09T01:12:25.965Z,97924.63
2022-09-09T01:15:02.001Z,97922.22
2022-09-09T01:17:36.693Z,97922.84
2022-09-09T01:20:12.071Z,97930.66
2022-09-09T01:23:08.005Z,97918.19
2022-09-09T01:26:13.826Z,97918.66
2022-09-09T01:28:44.102Z,97921.22
2022-09-09T01:31:15.689Z,97917.25
2022-09-09T01:33:42.545Z,97918.97
2022-09-09T01:36:14.735Z,97926.13
2022-09-09T01:38:41.679Z,97925.28
2022-09-09T01:41:08.621Z,97923.19
2022-09-09T01:43:35.301Z,97927.34
2022-09-09T01:46:03.707Z,97922.66
2022-09-09T01:48:31.406Z,97923.50
2022-09-09T01:50:58.030Z,97925.25
2022-09-09T01:53:24.702Z,97923.38
2022-09-09T01:56:24.673Z,97918.22
2022-09-09T01:59:10.316Z,97929.56
2022-09-09T02:01:51.638Z,97925.25
2022-09-09T02:04:47.623Z,97929.06
2022-09-09T02:07:35.708Z,97926.72
2022-09-09T02:10:11.278Z,97927.94
2022-09-09T02:12:43.703Z,97926.00
2022-09-09T02:15:21.916Z,97925.47
2022-09-09T02:17:51.574Z,97927.25
2022-09-09T02:20:20.252Z,97924.44
2022-09-09T02:22:50.967Z,97927.94
2022-09-09T02:25:21.269Z,97927.59
2022-09-09T02:27:51.560Z,97929.38
2022-09-09T02:30:20.870Z,97937.03
2022-09-09T02:32:52.568Z,97933.25
2022-09-09T02:35:23.468Z,97937.56
2022-09-09T02:37:54.189Z,97941.44
2022-09-09T02:40:22.102Z,97935.44
2022-09-09T02:42:50.446Z,97932.03
2022-09-09T02:45:24.057Z,97939.53
2022-09-09T02:48:09.318Z,97941.53
2022-09-09T02:50:47.935Z,97937.09
2022-09-09T02:53:22.326Z,97942.41
2022-09-09T02:55:56.365Z,97937.94
2022-09-09T02:58:24.489Z,97930.25
2022-09-09T03:00:52.187Z,97924.63
2022-09-09T03:03:19.810Z,97919.88
2022-09-09T03:05:46.794Z,97920.59
2022-09-09T03:08:14.373Z,97919.63
2022-09-09T03:10:41.079Z,97919.72
2022-09-09T03:13:08.085Z,97918.97
2022-09-09T03:15:35.522Z,97926.84
2022-09-09T03:18:02.392Z,97926.00
2022-09-09T03:20:30.478Z,97925.50
2022-09-09T03:22:57.833Z,97923.53
2022-09-09T03:25:26.018Z,97919.84
2022-09-09T03:27:55.566Z,97920.72
2022-09-09T03:30:26.249Z,97923.72
2022-09-09T03:32:53.512Z,97920.28
2022-09-09T03:35:21.012Z,97922.50
2022-09-09T03:37:47.741Z,97927.00
2022-09-09T03:40:14.859Z,97931.72
2022-09-09T03:42:41.530Z,97929.66
2022-09-09T03:45:10.429Z,97934.38
2022-09-09T03:47:37.728Z,97932.56
2022-09-09T03:50:09.074Z,97939.66
2022-09-09T03:52:37.292Z,97938.72
2022-09-09T03:55:04.597Z,97930.28
2022-09-09T03:57:31.143Z,97928.88
2022-09-09T03:59:57.571Z,97926.31
2022-09-09T04:02:24.861Z,97918.59
2022-09-09T04:04:51.546Z,97926.41
2022-09-09T04:07:18.010Z,97918.78
2022-09-09T04:09:44.989Z,97911.91
2022-09-09T04:12:14.439Z,97913.66
2022-09-09T04:14:41.021Z,97914.44
2022-09-09T04:17:07.516Z,97910.22
2022-09-09T04:19:34.427Z,97913.50
2022-09-09T04:22:01.099Z,97908.00
2022-09-09T04:24:30.314Z,97910.84
2022-09-09T04:26:56.880Z,97908.38
2022-09-09T04:29:23.425Z,97912.53
2022-09-09T04:31:50.059Z,97908.19
2022-09-09T04:34:16.709Z,97904.91
2022-09-09T04:36:43.326Z,97901.78
2022-09-09T04:39:09.894Z,97908.34
2022-09-09T04:41:36.480Z,97908.28
2022-09-09T04:44:04.162Z,97910.47
2022-09-09T04:46:30.771Z,97921.06
2022-09-09T04:48:57.425Z,97924.41
2022-09-09T04:51:24.080Z,97926.41
2022-09-09T04:53:51.924Z,97923.63
2022-09-09T04:56:19.439Z,97929.25
2022-09-09T04:58:46.931Z,97925.16
2022-09-09T05:01:17.094Z,97931.66
2022-09-09T05:03:43.785Z,97939.66
2022-09-09T05:06:22.402Z,97941.41
2022-09-09T05:08:50.478Z,97949.56
2022-09-09T05:11:19.582Z,97943.72
2022-09-09T05:13:46.713Z,97946.53
2022-09-09T05:16:14.833Z,97944.66
2022-09-09T05:18:43.743Z,97958.66
2022-09-09T05:21:14.236Z,97951.56
2022-09-09T05:23:40.940Z,97953.75
2022-09-09T05:26:12.608Z,97953.06
2022-09-09T05:28:41.168Z,97962.19
2022-09-09T05:31:12.430Z,97950.75
2022-09-09T05:33:41.720Z,97945.59
2022-09-09T05:36:11.863Z,97952.09
2022-09-09T05:38:39.096Z,97956.31
2022-09-09T05:41:06.203Z,97952.66
2022-09-09T05:43:33.957Z,97950.25
2022-09-09T05:46:09.171Z,97941.56
2022-09-09T05:48:40.267Z,97947.88
2022-09-09T05:51:09.618Z,97940.88
2022-09-09T05:53:36.595Z,97944.16
2022-09-09T05:56:08.504Z,97940.56
2022-09-09T05:58:35.982Z,97947.56
2022-09-09T06:01:12.085Z,97943.69
2022-09-09T06:03:40.755Z,97946.75
2022-09-09T06:06:23.353Z,97951.69
2022-09-09T06:08:52.803Z,97951.44
2022-09-09T06:11:25.071Z,97951.63
2022-09-09T06:13:55.591Z,97951.03
2022-09-09T06:16:24.994Z,97957.84
2022-09-09T06:18:53.288Z,97963.00
2022-09-09T06:21:39.633Z,97961.13
2022-09-09T06:24:06.495Z,97958.75
2022-09-09T06:26:42.958Z,97955.28
2022-09-09T06:29:10.489Z,97952.25
2022-09-09T06:31:38.929Z,97948.72
2022-09-09T06:34:07.707Z,97954.22
2022-09-09T06:36:38.798Z,97959.53
2022-09-09T06:39:12.140Z,97956.88
2022-09-09T06:41:41.010Z,97953.47
2022-09-09T06:44:07.761Z,97948.84
2022-09-09T06:46:34.859Z,97956.06
2022-09-09T06:49:01.855Z,97943.69
2022-09-09T06:51:31.633Z,97947.47
2022-09-09T06:54:00.707Z,97951.28
2022-09-09T06:56:31.770Z,97952.72
2022-09-09T06:59:02.185Z,97957.19
2022-09-09T07:01:31.633Z,97960.59
2022-09-09T07:04:03.168Z,97954.03
2022-09-09T07:06:35.550Z,97966.00
2022-09-09T07:09:10.976Z,97963.03
2022-09-09T07:11:43.645Z,97969.13
2022-09-09T07:14:13.674Z,97961.03
2022-09-09T07:16:43.274Z,97964.53
2022-09-09T07:19:10.652Z,97955.75
2022-09-09T07:21:37.240Z,97964.06
2022-09-09T07:24:04.121Z,97964.41
2022-09-09T07:26:31.974Z,97967.34
2022-09-09T07:28:58.653Z,97963.47
2022-09-09T07:31:28.399Z,97959.34
2022-09-09T07:33:55.025Z,97969.34
2022-09-09T07:36:33.054Z,97965.84
2022-09-09T07:39:06.366Z,97976.94
2022-09-09T07:41:36.943Z,97973.50
2022-09-09T07:44:08.867Z,97978.13
2022-09-09T07:46:36.343Z,97975.56
2022-09-09T07:49:04.300Z,97969.63
2022-09-09T07:51:33.982Z,97964.47
2022-09-09T07:54:08.807Z,97974.75
2022-09-09T07:56:35.545Z,97980.19
2022-09-09T07:59:02.380Z,97977.94
2022-09-09T08:01:32.282Z,97979.69
2022-09-09T08:04:02.225Z,97976.09
2022-09-09T08:06:31.627Z,97981.88
2022-09-09T08:08:58.318Z,97980.16
2022-09-09T08:11:26.884Z,97983.66
2022-09-09T08:13:56.950Z,97980.56
2022-09-09T08:16:31.875Z,97982.78
2022-09-09T08:18:59.200Z,97983.47
2022-09-09T08:21:29.163Z,97985.06
2022-09-09T08:23:58.367Z,97991.69
2022-09-09T08:26:30.568Z,97992.03
2022-09-09T08:28:58.879Z,98001.16
2022-09-09T08:31:29.593Z,97999.22
2022-09-09T08:33:57.355Z,97998.50
2022-09-09T08:36:26.748Z,97991.50
2022-09-09T08:38:55.629Z,97995.75
2022-09-09T08:41:55.024Z,97995.97
2022-09-09T08:44:32.746Z,97992.13
2022-09-09T08:47:15.921Z,97995.88
2022-09-09T08:50:15.434Z,98002.63
2022-09-09T08:52:49.844Z,97993.72
2022-09-09T08:55:40.885Z,98002.75
2022-09-09T08:58:16.817Z,98002.03
2022-09-09T09:01:10.667Z,97999.47
2022-09-09T09:03:52.599Z,98006.78
2022-09-09T09:06:58.082Z,98002.81
2022-09-09T09:09:37.287Z,98010.78
2022-09-09T09:12:16.294Z,98012.91
2022-09-09T09:14:45.239Z,98018.69
2022-09-09T09:17:16.439Z,98015.91
2022-09-09T09:19:44.701Z,98015.28
2022-09-09T09:22:29.828Z,98022.06
2022-09-09T09:25:09.573Z,98020.88
2022-09-09T09:27:48.725Z,98007.50
2022-09-09T09:30:29.597Z,98016.44
2022-09-09T09:33:19.456Z,98020.41
2022-09-09T09:35:46.182Z,98022.13
2022-09-09T09:41:11.527Z,98007.13
2022-09-09T09:43:43.631Z,98019.38
2022-09-09T09:46:24.948Z,98010.88
2022-09-09T09:49:09.897Z,98018.84
2022-09-09T09:51:37.647Z,98021.47
2022-09-09T09:54:31.562Z,98015.03
2022-09-09T09:57:16.001Z,98005.94
2022-09-09T09:59:43.870Z,98002.59
2022-09-09T10:02:19.647Z,98011.69
2022-09-09T10:04:47.073Z,98013.06
2022-09-09T10:07:23.780Z,98013.84
2022-09-09T10:09:56.202Z,98015.59
2022-09-09T10:12:31.831Z,98010.03
2022-09-09T10:15:26.119Z,97997.53
2022-09-09T10:18:16.977Z,98001.91
2022-09-09T10:21:04.105Z,97996.09
2022-09-09T10:24:02.790Z,97994.91
2022-09-09T10:26:50.821Z,97992.38
2022-09-09T10:29:45.703Z,97984.69
2022-09-09T10:32:37.177Z,97984.88
2022-09-09T10:35:28.591Z,97989.44
2022-09-09T10:38:22.323Z,97978.78
2022-09-09T10:40:56.479Z,97987.25
2022-09-09T10:43:44.960Z,97980.91
2022-09-09T10:46:31.979Z,97985.22
2022-09-09T10:49:13.737Z,97979.03
2022-09-09T10:52:07.702Z,97978.72
2022-09-09T10:55:08.340Z,97972.38
2022-09-09T10:57:41.921Z,97977.06
2022-09-09T11:00:16.837Z,97976.72
2022-09-09T11:02:44.016Z,97991.44
2022-09-09T11:05:21.390Z,97985.03
2022-09-09T11:07:57.242Z,97987.47
2022-09-09T11:10:41.897Z,97983.22
2022-09-09T11:13:27.170Z,97988.81
2022-09-09T11:16:02.718Z,97979.44
2022-09-09T11:18:30.489Z,97986.31
2022-09-09T11:21:02.131Z,97984.88
2022-09-09T11:23:42.350Z,97987.00
2022-09-09T11:26:16.289Z,97979.88
2022-09-09T11:29:20.262Z,97989.13
2022-09-09T11:32:13.898Z,97979.16
2022-09-09T11:35:09.848Z,97992.00
2022-09-09T11:38:04.449Z,97995.41
2022-09-09T11:40:33.186Z,97987.50
2022-09-09T11:43:10.267Z,97985.09
2022-09-09T11:45:37.864Z,97993.63
2022-09-09T11:48:07.184Z,97985.84
2022-09-09T11:50:38.483Z,97986.09
2022-09-09T11:53:24.080Z,97992.72
2022-09-09T11:56:10.102Z,97993.31
2022-09-09T11:58:43.281Z,98008.53
2022-09-09T12:01:49.864Z,98005.22
2022-09-09T12:04:50.167Z,98010.44
2022-09-09T12:07:28.913Z,98008.84
2022-09-09T12:10:04.472Z,97997.84
2022-09-09T12:12:34.423Z,97989.22
2022-09-09T12:15:03.713Z,97987.78
2022-09-09T12:17:32.475Z,97982.00
2022-09-09T12:20:32.450Z,97986.63
2022-09-09T12:23:27.966Z,97980.59
2022-09-09T12:26:03.449Z,97966.31
2022-09-09T12:29:02.419Z,97977.56
2022-09-09T12:31:45.950Z,97968.88
2022-09-09T12:34:37.050Z,97974.66
2022-09-09T12:37:36.500Z,97972.38
2022-09-09T12:40:24.478Z,97977.88
2022-09-09T12:42:51.455Z,97975.41
2022-09-09T12:45:18.424Z,97975.09
2022-09-09T12:47:44.977Z,97983.16
2022-09-09T12:50:27.364Z,97973.22
2022-09-09T12:52:59.538Z,97973.31
2022-09-09T12:55:31.221Z,97972.19
2022-09-09T12:58:00.451Z,97975.50
2022-09-09T13:00:28.102Z,97980.38
2022-09-09T13:03:02.448Z,97978.81
2022-09-09T13:05:40.089Z,97971.66
2022-09-09T13:08:11.176Z,97958.69
2022-09-09T13:11:02.487Z,97954.47
2022-09-09T13:13:36.929Z,97959.91
2022-09-09T13:16:05.713Z,97960.31
2022-09-09T13:18:35.515Z,97955.53
2022-09-09T13:21:03.050Z,97954.50
2022-09-09T13:23:38.407Z,97951.09
2022-09-09T13:26:31.597Z,97948.56
2022-09-09T13:29:18.889Z,97946.94
2022-09-09T13:31:45.998Z,97953.41
2022-09-09T13:34:29.101Z,97945.56
2022-09-09T13:37:07.006Z,97950.94
2022-09-09T13:39:35.741Z,97949.59
2022-09-09T13:42:04.238Z,97937.38
2022-09-09T13:44:39.375Z,97934.94
2022-09-09T13:47:18.394Z,97924.09
2022-09-09T13:49:46.752Z,97933.44
2022-09-09T13:52:15.619Z,97919.91
2022-09-09T13:54:42.888Z,97920.53
2022-09-09T13:57:35.683Z,97917.72
2022-09-09T14:00:06.257Z,97941.66
2022-09-09T14:02:33.731Z,97929.97
2022-09-09T14:05:00.368Z,97931.56
2022-09-09T14:07:28.101Z,97931.81
2022-09-09T14:09:54.950Z,97925.63
2022-09-09T14:12:21.597Z,97929.78
2022-09-09T14:14:48.188Z,97931.63
2022-09-09T14:17:16.002Z,97931.00
2022-09-09T14:19:43.726Z,97929.78
2022-09-09T14:22:10.492Z,97926.84
2022-09-09T14:24:37.245Z,97922.34
2022-09-09T14:27:03.851Z,97918.09
2022-09-09T14:29:30.566Z,97913.03
2022-09-09T14:31:57.578Z,97917.38
2022-09-09T14:34:24.291Z,97899.38
2022-09-09T14:36:51.587Z,97905.84
2022-09-09T14:39:18.251Z,97909.00
2022-09-09T14:41:45.156Z,97906.81
2022-09-09T14:44:11.910Z,97913.69
2022-09-09T14:46:39.218Z,97915.38
2022-09-09T14:49:06.026Z,97918.31
2022-09-09T14:51:32.593Z,97918.22
2022-09-09T14:54:01.099Z,97915.63
2022-09-09T14:56:30.717Z,97916.59
2022-09-09T14:58:59.425Z,97926.06
2022-09-09T15:01:29.575Z,97926.53
2022-09-09T15:04:01.518Z,97923.13
2022-09-09T15:06:30.463Z,97923.81
2022-09-09T15:08:58.878Z,97924.06
2022-09-09T15:11:29.258Z,97928.28
2022-09-09T15:13:56.178Z,97935.03
2022-09-09T15:16:25.410Z,97935.44
2022-09-09T15:18:54.272Z,97926.22
2022-09-09T15:21:22.956Z,97931.31
2022-09-09T15:23:50.266Z,97938.72
2022-09-09T15:26:18.249Z,97936.91
2022-09-09T15:28:46.822Z,97936.63
2022-09-09T15:31:18.592Z,97934.81
2022-09-09T15:33:52.405Z,97935.34
2022-09-09T15:36:27.566Z,97932.78
2022-09-09T15:38:54.346Z,97920.00
2022-09-09T15:41:22.724Z,97926.22
2022-09-09T15:43:52.519Z,97923.22
2022-09-09T15:46:19.098Z,97924.00
2022-09-09T15:48:48.119Z,97913.59
2022-09-09T15:51:37.920Z,97918.34
2022-09-09T15:54:03.562Z,97925.25
2022-09-09T15:56:32.658Z,97917.25
2022-09-09T15:59:04.226Z,97919.19
2022-09-09T16:01:32.812Z,97922.59
2022-09-09T16:04:01.165Z,97918.44
2022-09-09T16:06:30.018Z,97920.88
2022-09-09T16:08:58.731Z,97923.09
2022-09-09T16:11:32.218Z,97926.00
2022-09-09T16:14:00.890Z,97924.06
2022-09-09T16:16:30.533Z,97932.81
2022-09-09T16:19:00.307Z,97934.97
2022-09-09T16:21:32.701Z,97935.22
2022-09-09T16:24:01.498Z,97936.28
2022-09-09T16:26:29.929Z,97946.38
2022-09-09T16:28:57.183Z,97936.00
2022-09-09T16:31:25.145Z,97934.97
2022-09-09T16:33:52.395Z,97938.72
2022-09-09T16:36:28.159Z,97943.63
2022-09-09T16:38:59.858Z,97937.69
2022-09-09T16:41:30.584Z,97939.19
2022-09-09T16:44:03.504Z,97948.34
2022-09-09T16:46:31.938Z,97950.38
2022-09-09T16:49:00.880Z,97949.44
2022-09-09T16:51:32.173Z,97953.38
2022-09-09T16:54:00.289Z,97954.88
2022-09-09T16:56:29.994Z,97955.50
2022-09-09T16:59:04.354Z,97954.97
2022-09-09T17:01:38.118Z,97961.56
2022-09-09T17:04:08.431Z,97954.75
2022-09-09T17:06:37.176Z,97958.06
2022-09-09T17:09:07.130Z,97961.91
2022-09-09T17:11:34.348Z,97964.78
2022-09-09T17:14:01.541Z,97962.34
2022-09-09T17:16:30.777Z,97965.31
2022-09-09T17:18:59.696Z,97970.94
2022-09-09T17:21:27.664Z,97975.91
2022-09-09T17:23:56.283Z,97975.59
2022-09-09T17:26:25.625Z,97972.19
2022-09-09T17:28:57.383Z,97969.50
2022-09-09T17:31:27.057Z,97968.31
2022-09-09T17:33:56.137Z,97970.75
2022-09-09T17:36:31.947Z,97974.91
2022-09-09T17:39:01.007Z,97972.53
2022-09-09T17:41:30.482Z,97970.94
2022-09-09T17:43:58.321Z,97976.31
2022-09-09T17:46:30.301Z,97982.69
2022-09-09T17:48:59.984Z,97982.91
2022-09-09T17:51:29.092Z,97983.69
2022-09-09T17:53:59.381Z,97992.63
2022-09-09T17:56:29.586Z,97992.63
2022-09-09T17:58:56.493Z,97999.88
2022-09-09T18:01:27.970Z,97993.22
2022-09-09T18:03:59.261Z,97988.66
2022-09-09T18:06:28.265Z,97996.84
2022-09-09T18:08:57.681Z,98002.44
2022-09-09T18:11:30.375Z,98002.00
2022-09-09T18:14:00.606Z,98003.22
2022-09-09T18:16:28.617Z,98006.06
2022-09-09T18:18:58.561Z,98006.75
2022-09-09T18:21:26.586Z,98010.84
2022-09-09T18:23:53.690Z,98008.28
2022-09-09T18:26:24.511Z,98007.13
2022-09-09T18:28:53.573Z,98009.41
2022-09-09T18:31:23.633Z,98010.91
2022-09-09T18:33:53.386Z,98017.56
2022-09-09T18:36:25.961Z,98011.28
2022-09-09T18:38:53.397Z,98011.69
2022-09-09T18:41:23.326Z,98010.22
2022-09-09T18:43:52.728Z,98021.09
2022-09-09T18:46:20.177Z,98021.81
2022-09-09T18:48:48.346Z,98021.41
2022-09-09T18:51:16.885Z,98027.00
2022-09-09T18:53:44.029Z,98023.56
2022-09-09T18:56:13.352Z,98018.78
2022-09-09T18:58:40.627Z,98021.03
2022-09-09T19:01:15.326Z,98020.63
2022-09-09T19:03:42.168Z,98021.56
2022-09-09T19:06:12.652Z,98026.31
2022-09-09T19:08:41.177Z,98028.34
2022-09-09T19:11:10.970Z,98030.47
2022-09-09T19:13:38.961Z,98034.94
2022-09-09T19:16:08.504Z,98032.53
2022-09-09T19:18:37.203Z,98035.19
2022-09-09T19:21:17.406Z,98028.13
2022-09-09T19:23:46.548Z,98027.22
2022-09-09T19:26:17.869Z,98028.53
2022-09-09T19:28:50.241Z,98022.03
2022-09-09T19:31:19.226Z,98022.22
2022-09-09T19:33:47.303Z,98027.75
2022-09-09T19:36:18.058Z,98023.38
2022-09-09T19:38:46.384Z,98026.09
2022-09-09T19:41:19.926Z,98020.63
2022-09-09T19:43:47.104Z,98024.56
2022-09-09T19:46:15.523Z,98029.84
2022-09-09T19:48:42.781Z,98027.34
2022-09-09T19:51:13.811Z,98024.69
2022-09-09T19:53:43.609Z,98033.91
2022-09-09T19:56:10.799Z,98035.16
2022-09-09T19:58:40.193Z,98028.75
2022-09-09T20:01:11.634Z,98041.50
2022-09-09T20:03:39.902Z,98049.47
2022-09-09T20:06:08.654Z,98045.94
2022-09-09T20:08:37.132Z,98050.41
2022-09-09T20:11:05.537Z,98041.81
2022-09-09T20:13:34.065Z,98048.19
2022-09-09T20:16:04.007Z,98047.13
2022-09-09T20:18:32.595Z,98051.63
2022-09-09T20:21:07.747Z,98047.56
2022-09-09T20:23:34.561Z,98053.06
2022-09-09T20:26:04.916Z,98055.88
2022-09-09T20:28:31.490Z,98055.16
2022-09-09T20:31:04.895Z,98045.94
2022-09-09T20:33:32.385Z,98056.81
2022-09-09T20:36:05.242Z,98054.31
2022-09-09T20:38:34.094Z,98054.47
2022-09-09T20:41:04.563Z,98061.03
2022-09-09T20:43:31.214Z,98054.03
2022-09-09T20:46:02.874Z,98052.78
2022-09-09T20:48:33.368Z,98053.81
2022-09-09T20:51:05.308Z,98050.09
2022-09-09T20:53:33.476Z,98056.25
2022-09-09T20:56:04.328Z,98053.19
2022-09-09T20:58:33.576Z,98061.50
2022-09-09T21:01:00.793Z,98053.31
2022-09-09T21:03:29.833Z,98058.97
2022-09-09T21:05:58.187Z,98053.22
2022-09-09T21:08:28.406Z,98054.84
2022-09-09T21:10:55.583Z,98056.88
2022-09-09T21:13:22.729Z,98055.25
2022-09-09T21:15:50.959Z,98056.03
2022-09-09T21:18:20.880Z,98063.22
2022-09-09T21:20:47.418Z,98060.41
2022-09-09T21:23:16.039Z,98061.91
2022-09-09T21:25:43.148Z,98058.97
2022-09-09T21:28:10.855Z,98057.75
2022-09-09T21:30:43.960Z,98056.94
2022-09-09T21:33:11.766Z,98052.66
2022-09-09T21:35:41.127Z,98050.09
2022-09-09T21:38:11.828Z,98052.19
2022-09-09T21:40:39.797Z,98055.81
2022-09-09T21:43:06.540Z,98057.97
2022-09-09T21:45:37.578Z,98054.34
2022-09-09T21:48:05.914Z,98057.38
2022-09-09T21:50:54.915Z,98061.81
2022-09-09T21:53:21.571Z,98052.47
2022-09-09T21:55:49.185Z,98059.75
2022-09-09T21:58:16.833Z,98058.34
2022-09-09T22:00:45.845Z,98056.19
2022-09-09T22:03:14.720Z,98070.13
2022-09-09T22:05:47.965Z,98068.16
2022-09-09T22:08:18.120Z,98071.44
2022-09-09T22:10:46.850Z,98069.16
2022-09-09T22:13:15.318Z,98076.19
2022-09-09T22:15:43.923Z,98060.38
2022-09-09T22:18:11.249Z,98067.41
2022-09-09T22:20:44.116Z,98055.78
2022-09-09T22:23:14.395Z,98054.94
2022-09-09T22:25:41.316Z,98059.69
2022-09-09T22:28:09.530Z,98059.75
2022-09-09T22:30:36.312Z,98056.50
2022-09-09T22:33:02.859Z,98057.50
2022-09-09T22:35:29.376Z,98062.09
2022-09-09T22:37:56.085Z,98057.50
2022-09-09T22:40:23.193Z,98058.69
2022-09-09T22:42:52.708Z,98064.09
2022-09-09T22:45:20.928Z,98056.25
2022-09-09T22:47:48.090Z,98058.03
2022-09-09T22:50:14.827Z,98064.56
2022-09-09T22:52:41.416Z,98061.13
2022-09-09T22:55:09.596Z,98063.50
2022-09-09T22:57:37.471Z,98061.72
2022-09-09T23:00:09.286Z,98066.72
2022-09-09T23:02:40.968Z,98057.16
2022-09-09T23:05:11.048Z,98059.31
2022-09-09T23:07:38.310Z,98054.09
2022-09-09T23:10:06.104Z,98053.94
2022-09-09T23:12:34.029Z,98050.16
2022-09-09T23:15:00.953Z,98054.09
2022-09-09T23:17:27.532Z,98058.75
2022-09-09T23:19:56.380Z,98055.88
2022-09-09T23:22:27.027Z,98054.44
2022-09-09T23:24:54.065Z,98055.31
2022-09-09T23:27:24.149Z,98055.38
2022-09-09T23:29:51.809Z,98050.75
2022-09-09T23:32:18.670Z,98053.72
2022-09-09T23:34:46.066Z,98051.09
2022-09-09T23:37:13.351Z,98055.16
2022-09-09T23:39:43.601Z,98050.31
2022-09-09T23:42:11.450Z,98053.59
2022-09-09T23:44:39.592Z,98062.59
2022-09-09T23:47:07.737Z,98054.81
2022-09-09T23:49:36.004Z,98055.59
2022-09-09T23:52:05.550Z,98046.31
2022-09-09T23:54:34.182Z,98047.31
2022-09-09T23:57:01.096Z,98055.88
2022-09-09T23:59:27.633Z,98053.53
